Summerhill, Pennsylvania
Current Conditions -  °F | °C
As of 5:11 AM on Thursday 18 Dec 2014 (Local Time) from KJST Reporting Station
Overcast Overcast  
Wind Chill:   Ceiling: 1500
Heat Index: 23°   Visibility: 10mi
Dew Point: 16°   Wind: 17mph
Humidity: 74%   Direction: 290°WNW
Pressure: 30.04"   Gusts: 23mph
Location:  40.38°N, 78.76°W
Report Text: KJST 181011Z AUTO 29015G20KT 10SM OVC015 M05/M09 A3004 RMK AO2 T10501089
Loading
Personal Weather Stations






























Interactive Weather Map New forecast layout! Learn more

10-Day Weather Forecast

Advertisements
Track Severe Weather on mobile